Londyn, United Kingdom

15:50 BST dnia 25-sierpień-2016 (GMT +0100)
Heathrow | | Change Station

Wysokość 79 ft 51.48 °N, 0.46 °W | Updated 30 minutes ago

Clear
pogodnie
79 ° F
Odczuwalna 79 ° F
Płn.
2
Wiatr zmienny Wiatr od zmienny

Dziś
Wysoka -- | Niska -- ° F
--% Prawdop. opadów
Wczoraj
Wysoka -- | Niska -- ° F
Precip. -- cali
Ciśnienie 29.98 cali
Widzialność 6.2 mil
chmury
Punkt rosy 64 ° F
Wilgotność 61%
Opady deszczu 0.00 cali
grubość pokrywy śnieżnej Niedostępne.
6:03 AM 8:02 PM
Ostatnia kwadra, 45% visible
METAR EGLL 251420Z AUTO VRB02KT 9999 NCD 26/18 Q1015 TEMPO SHRA
Ciśnienie 29.98 cali
Widzialność 6.2 mil
chmury
Punkt rosy 64 ° F
Wilgotność 61%
Opady deszczu 0.00 cali
grubość pokrywy śnieżnej Niedostępne.
6:03 AM 8:02 PM
Ostatnia kwadra, 45% visible
METAR EGLL 251420Z AUTO VRB02KT 9999 NCD 26/18 Q1015 TEMPO SHRA

10-Day Weather Forecast

×

Almanac

Astronomia

Aug. 25, 2016 Wschód Zachów
Aktualny czas
Zmierzch cywilny
Zmierzch żeglarski
świt/zmierzch astronomiczny
Księżyc
całkowite oświetlenie
Długość dnia
Tomorrow will be .
, % of the Moon is Illuminated

Dzisiejsze ekstrema

Country Highs Country Lows

Community

WunderPhotos

Upload Photos

1,934,850 zdjęcia zostały przesłane!

WunderBlog® & News

Nearby

Jakość powietrza

  Jakość powietrza czynnik AQ Zanieczyszczenie
Not available.

Głębokość pokrywy śnieżnej

Station Depth n.p.m.

Aktywność sejsmiczna

Miejscowość Distance Mag. Time & Date
Minimum magnitude displayed is 2.5.

Temperatury wody na wybrzeżu

Miejsce Temperatura

Stations

Najbliższa stacja pogodowa

Lokalizacja stacji Temp. czynnik chłodzący wiatru Punkt rosy Wilgotność Wiatr Precip. Wysokość Uaktualniono Typ